createdAt,value
2018-11-07T00:01:15.305Z,9.66
2018-11-07T00:03:45.022Z,9.69
2018-11-07T00:06:14.644Z,9.68
2018-11-07T00:08:44.186Z,9.64
2018-11-07T00:11:13.814Z,9.61
2018-11-07T00:13:43.386Z,9.55
2018-11-07T00:16:12.956Z,9.42
2018-11-07T00:18:42.652Z,9.37
2018-11-07T00:21:12.262Z,9.33
2018-11-07T00:23:41.861Z,9.26
2018-11-07T00:26:11.588Z,9.30
2018-11-07T00:28:41.126Z,9.40
2018-11-07T00:31:10.678Z,9.58
2018-11-07T00:33:40.393Z,9.80
2018-11-07T00:36:10.026Z,10.12
2018-11-07T00:38:39.703Z,10.38
2018-11-07T00:41:09.320Z,10.48
2018-11-07T00:43:39.020Z,10.63
2018-11-07T00:46:08.665Z,10.70
2018-11-07T00:48:38.257Z,10.60
2018-11-07T00:51:07.851Z,10.54
2018-11-07T00:53:37.422Z,10.57
2018-11-07T00:56:07.007Z,10.45
2018-11-07T00:58:36.627Z,10.50
2018-11-07T01:01:06.308Z,10.57
2018-11-07T01:03:35.962Z,10.57
2018-11-07T01:06:05.616Z,10.46
2018-11-07T01:08:35.208Z,10.42
2018-11-07T01:11:04.967Z,10.45
2018-11-07T01:13:34.555Z,10.37
2018-11-07T01:16:04.193Z,10.19
2018-11-07T01:18:33.885Z,10.09
2018-11-07T01:21:03.550Z,10.17
2018-11-07T01:23:33.138Z,10.25
2018-11-07T01:26:02.796Z,10.27
2018-11-07T01:28:32.426Z,10.13
2018-11-07T01:31:01.997Z,10.08
2018-11-07T01:33:31.730Z,10.11
2018-11-07T01:36:01.306Z,10.21
2018-11-07T01:38:31.065Z,10.12
2018-11-07T01:41:00.709Z,10.06
2018-11-07T01:43:30.370Z,10.02
2018-11-07T01:46:00.132Z,10.18
2018-11-07T01:48:29.792Z,10.25
2018-11-07T01:50:59.415Z,10.27
2018-11-07T01:53:28.997Z,10.30
2018-11-07T01:55:58.561Z,10.26
2018-11-07T01:58:28.156Z,10.25
2018-11-07T02:00:57.787Z,10.27
2018-11-07T02:03:27.420Z,10.22
2018-11-07T02:05:57.034Z,10.27
2018-11-07T02:08:30.796Z,10.24
2018-11-07T02:11:01.266Z,10.17
2018-11-07T02:13:30.890Z,10.12
2018-11-07T02:16:00.502Z,10.00
2018-11-07T02:18:31.194Z,9.94
2018-11-07T02:21:00.811Z,9.83
2018-11-07T02:23:30.409Z,9.75
2018-11-07T02:26:00.039Z,9.68
2018-11-07T02:28:29.732Z,9.66
2018-11-07T02:30:59.257Z,9.63
2018-11-07T02:33:28.875Z,9.56
2018-11-07T02:35:58.447Z,9.37
2018-11-07T02:38:28.161Z,9.31
2018-11-07T02:40:57.760Z,9.23
2018-11-07T02:43:27.371Z,9.12
2018-11-07T02:45:56.968Z,8.93
2018-11-07T02:48:26.580Z,8.83
2018-11-07T02:50:56.145Z,8.77
2018-11-07T02:53:25.951Z,8.84
2018-11-07T02:55:55.446Z,8.92
2018-11-07T02:58:25.101Z,8.96
2018-11-07T03:00:54.854Z,9.01
2018-11-07T03:03:24.409Z,9.00
2018-11-07T03:05:53.940Z,8.97
2018-11-07T03:08:23.737Z,8.96
2018-11-07T03:10:53.349Z,9.03
2018-11-07T03:13:22.999Z,8.91
2018-11-07T03:15:52.559Z,8.84
2018-11-07T03:18:22.100Z,8.92
2018-11-07T03:20:51.756Z,8.87
2018-11-07T03:23:21.306Z,8.84
2018-11-07T03:25:50.865Z,8.83
2018-11-07T03:28:20.574Z,8.71
2018-11-07T03:30:50.190Z,8.73
2018-11-07T03:33:19.991Z,8.79
2018-11-07T03:35:49.595Z,8.71
2018-11-07T03:38:19.230Z,8.72
2018-11-07T03:40:49.276Z,8.73
2018-11-07T03:43:18.934Z,8.62
2018-11-07T03:45:52.632Z,8.55
2018-11-07T03:48:22.241Z,8.56
2018-11-07T03:50:51.886Z,8.76
2018-11-07T03:53:21.548Z,8.95
2018-11-07T03:55:51.141Z,9.03
2018-11-07T03:58:20.733Z,9.10
2018-11-07T04:00:50.297Z,9.10
2018-11-07T04:03:19.916Z,9.12
2018-11-07T04:05:49.582Z,9.13
2018-11-07T04:08:19.190Z,9.23
2018-11-07T04:10:48.891Z,9.21
2018-11-07T04:13:18.448Z,9.29
2018-11-07T04:15:48.110Z,9.39
2018-11-07T04:18:17.820Z,9.37
2018-11-07T04:20:47.370Z,9.27
2018-11-07T04:23:16.927Z,9.28
2018-11-07T04:25:46.731Z,9.26
2018-11-07T04:28:16.335Z,9.23
2018-11-07T04:30:45.939Z,9.14
2018-11-07T04:33:15.593Z,9.04
2018-11-07T04:35:45.170Z,9.02
2018-11-07T04:38:15.281Z,8.99
2018-11-07T04:40:44.845Z,8.89
2018-11-07T04:43:14.479Z,8.84
2018-11-07T04:45:44.037Z,8.71
2018-11-07T04:48:13.629Z,8.61
2018-11-07T04:50:43.267Z,8.56
2018-11-07T04:53:12.845Z,8.59
2018-11-07T04:55:42.386Z,8.58
2018-11-07T04:58:12.021Z,8.62
2018-11-07T05:00:41.631Z,8.66
2018-11-07T05:03:11.341Z,8.61
2018-11-07T05:05:41.147Z,8.60
2018-11-07T05:08:10.836Z,8.63
2018-11-07T05:10:40.486Z,8.61
2018-11-07T05:13:10.171Z,8.54
2018-11-07T05:15:39.772Z,8.50
2018-11-07T05:18:09.663Z,8.43
2018-11-07T05:20:39.284Z,8.40
2018-11-07T05:23:08.919Z,8.33
2018-11-07T05:25:38.646Z,8.29
2018-11-07T05:28:08.284Z,8.26
2018-11-07T05:30:37.975Z,8.24
2018-11-07T05:33:07.635Z,8.29
2018-11-07T05:35:37.336Z,8.28
2018-11-07T05:38:07.406Z,8.40
2018-11-07T05:40:37.100Z,8.52
2018-11-07T05:43:06.966Z,8.47
2018-11-07T05:45:36.683Z,8.42
2018-11-07T05:48:06.292Z,8.26
2018-11-07T05:50:38.009Z,8.22
2018-11-07T05:53:10.138Z,8.18
2018-11-07T05:55:39.844Z,8.20
2018-11-07T05:58:09.524Z,8.25
2018-11-07T06:00:39.105Z,8.40
2018-11-07T06:03:08.797Z,8.40
2018-11-07T06:05:38.445Z,8.48
2018-11-07T06:08:08.396Z,8.49
2018-11-07T06:10:38.030Z,8.50
2018-11-07T06:13:07.663Z,8.56
2018-11-07T06:15:37.226Z,8.59
2018-11-07T06:18:07.182Z,8.63
2018-11-07T06:20:37.405Z,8.68
2018-11-07T06:23:07.116Z,8.70
2018-11-07T06:25:36.804Z,8.76
2018-11-07T06:28:06.542Z,8.80
2018-11-07T06:30:36.136Z,8.81
2018-11-07T06:33:06.173Z,8.83
2018-11-07T06:35:35.805Z,8.84
2018-11-07T06:38:05.681Z,8.92
2018-11-07T06:40:35.284Z,8.97
2018-11-07T06:43:04.988Z,9.05
2018-11-07T06:45:34.604Z,9.17
2018-11-07T06:48:04.399Z,9.26
2018-11-07T06:50:34.056Z,9.43
2018-11-07T06:53:03.686Z,9.65
2018-11-07T06:55:33.303Z,9.94
2018-11-07T06:58:02.926Z,10.20
2018-11-07T07:00:36.415Z,10.62
2018-11-07T07:03:06.744Z,10.99
2018-11-07T07:05:36.355Z,11.19
2018-11-07T07:08:06.274Z,11.41
2018-11-07T07:10:35.936Z,11.61
2018-11-07T07:13:05.909Z,11.67
2018-11-07T07:15:35.480Z,11.76
2018-11-07T07:18:05.204Z,11.79
2018-11-07T07:20:35.208Z,11.88
2018-11-07T07:23:04.760Z,11.96
2018-11-07T07:25:34.380Z,12.19
2018-11-07T07:28:03.959Z,12.36
2018-11-07T07:30:33.600Z,12.51
2018-11-07T07:33:03.170Z,12.64
2018-11-07T07:35:32.962Z,12.89
2018-11-07T07:38:02.536Z,13.07
2018-11-07T07:40:32.084Z,13.22
2018-11-07T07:43:01.670Z,13.65
2018-11-07T07:45:31.254Z,13.94
2018-11-07T07:48:00.876Z,14.33
2018-11-07T07:50:30.473Z,14.32
2018-11-07T07:53:00.174Z,14.39
2018-11-07T07:55:29.679Z,14.77
2018-11-07T07:57:59.204Z,14.70
2018-11-07T08:00:29.043Z,14.96
2018-11-07T08:02:58.639Z,15.01
2018-11-07T08:05:28.222Z,14.84
2018-11-07T08:07:57.813Z,14.72
2018-11-07T08:10:27.389Z,14.81
2018-11-07T08:12:56.954Z,15.32
2018-11-07T08:15:27.672Z,15.03
2018-11-07T08:17:57.223Z,14.92
2018-11-07T08:20:26.883Z,15.12
2018-11-07T08:22:56.590Z,15.44
2018-11-07T08:25:26.099Z,15.69
2018-11-07T08:27:55.764Z,15.43
2018-11-07T08:30:25.309Z,15.66
2018-11-07T08:32:55.174Z,15.83
2018-11-07T08:35:24.831Z,15.46
2018-11-07T08:37:54.379Z,15.77
2018-11-07T08:40:24.715Z,15.72
2018-11-07T08:42:54.272Z,16.15
2018-11-07T08:45:23.968Z,16.05
2018-11-07T08:47:53.511Z,16.09
2018-11-07T08:50:23.041Z,16.16
2018-11-07T08:52:52.680Z,16.14
2018-11-07T08:55:23.313Z,16.09
2018-11-07T08:57:52.907Z,16.23
2018-11-07T09:00:23.649Z,16.16
2018-11-07T09:02:53.338Z,16.56
2018-11-07T09:05:23.678Z,16.42
2018-11-07T09:07:53.287Z,16.60
2018-11-07T09:10:23.831Z,16.75
2018-11-07T09:12:53.418Z,17.04
2018-11-07T09:15:25.989Z,16.86
2018-11-07T09:17:55.818Z,17.81
2018-11-07T09:20:25.724Z,18.03
2018-11-07T09:22:55.426Z,17.97
2018-11-07T09:25:25.133Z,17.59
2018-11-07T09:27:54.742Z,18.29
2018-11-07T09:30:24.882Z,18.20
2018-11-07T09:32:54.568Z,17.90
2018-11-07T09:35:24.177Z,18.71
2018-11-07T09:37:53.757Z,18.70
2018-11-07T09:40:23.453Z,18.77
2018-11-07T09:42:54.783Z,18.41
2018-11-07T09:45:25.625Z,18.48
2018-11-07T09:47:55.196Z,18.44
2018-11-07T09:50:24.783Z,19.31
2018-11-07T09:52:54.344Z,19.64
2018-11-07T09:55:23.971Z,18.95
2018-11-07T09:57:53.584Z,19.27
2018-11-07T10:00:24.294Z,19.24
2018-11-07T10:02:53.933Z,19.73
2018-11-07T10:05:23.580Z,19.68
2018-11-07T10:07:54.223Z,19.31
2018-11-07T10:10:26.798Z,18.77
2018-11-07T10:12:59.390Z,19.52
2018-11-07T10:15:32.005Z,19.93
2018-11-07T10:18:01.629Z,19.77
2018-11-07T10:20:31.246Z,19.87
2018-11-07T10:23:00.804Z,19.64
2018-11-07T10:25:31.103Z,19.34
2018-11-07T10:28:00.842Z,19.92
2018-11-07T10:30:30.400Z,19.68
2018-11-07T10:32:59.868Z,20.12
2018-11-07T10:35:29.565Z,19.97
2018-11-07T10:37:59.218Z,20.02
2018-11-07T10:40:31.849Z,19.84
2018-11-07T10:43:01.407Z,20.15
2018-11-07T10:45:31.022Z,20.53
2018-11-07T10:48:00.583Z,20.22
2018-11-07T10:50:30.204Z,20.08
2018-11-07T10:52:59.842Z,20.50
2018-11-07T10:55:29.411Z,19.61
2018-11-07T10:57:59.093Z,19.40
2018-11-07T11:00:32.790Z,19.59
2018-11-07T11:03:06.402Z,20.17
2018-11-07T11:05:36.139Z,20.26
2018-11-07T11:08:06.116Z,20.04
2018-11-07T11:10:35.823Z,20.13
2018-11-07T11:13:05.739Z,20.37
2018-11-07T11:15:35.968Z,21.06
2018-11-07T11:18:05.679Z,20.95
2018-11-07T11:20:35.282Z,20.86
2018-11-07T11:23:04.906Z,20.17
2018-11-07T11:25:34.592Z,20.73
2018-11-07T11:28:04.295Z,20.83
2018-11-07T11:30:33.906Z,20.43
2018-11-07T11:33:03.537Z,20.24
2018-11-07T11:35:33.217Z,20.71
2018-11-07T11:38:02.922Z,20.84
2018-11-07T11:40:32.555Z,21.05
2018-11-07T11:43:02.169Z,21.25
2018-11-07T11:45:31.784Z,21.05
2018-11-07T11:48:01.698Z,21.01
2018-11-07T11:50:31.358Z,21.17
2018-11-07T11:53:01.066Z,20.28
2018-11-07T11:55:30.648Z,20.45
2018-11-07T11:58:00.267Z,20.45
2018-11-07T12:00:29.834Z,20.39
2018-11-07T12:02:59.416Z,20.66
2018-11-07T12:05:29.062Z,21.19
2018-11-07T12:07:58.710Z,21.01
2018-11-07T12:10:28.328Z,20.28
2018-11-07T12:12:58.544Z,20.94
2018-11-07T12:15:28.948Z,21.06
2018-11-07T12:17:58.525Z,20.70
2018-11-07T12:20:28.171Z,20.47
2018-11-07T12:22:58.181Z,21.00
2018-11-07T12:25:27.766Z,20.87
2018-11-07T12:27:57.365Z,20.82
2018-11-07T12:30:27.011Z,21.51
2018-11-07T12:32:56.676Z,21.25
2018-11-07T12:35:26.314Z,21.10
2018-11-07T12:37:55.908Z,20.65
2018-11-07T12:40:25.610Z,20.53
2018-11-07T12:42:55.340Z,20.69
2018-11-07T12:45:25.399Z,20.49
2018-11-07T12:47:55.166Z,21.06
2018-11-07T12:50:25.483Z,20.93
2018-11-07T12:52:54.954Z,20.61
2018-11-07T12:55:24.540Z,20.15
2018-11-07T12:57:54.253Z,19.78
2018-11-07T13:00:25.068Z,19.77
2018-11-07T13:02:54.776Z,19.70
2018-11-07T13:05:25.485Z,19.31
2018-11-07T13:07:56.013Z,18.66
2018-11-07T13:10:25.713Z,18.68
2018-11-07T13:12:55.634Z,18.58
2018-11-07T13:15:32.412Z,18.63
2018-11-07T13:18:02.007Z,18.55
2018-11-07T13:20:31.676Z,18.43
2018-11-07T13:23:01.261Z,18.42
2018-11-07T13:25:34.216Z,18.35
2018-11-07T13:28:11.023Z,18.66
2018-11-07T13:30:40.687Z,18.75
2018-11-07T13:33:10.317Z,18.82
2018-11-07T13:35:39.967Z,18.96
2018-11-07T13:38:12.006Z,19.05
2018-11-07T13:40:41.359Z,18.85
2018-11-07T13:43:10.948Z,18.77
2018-11-07T13:45:41.009Z,18.77
2018-11-07T13:48:10.604Z,18.57
2018-11-07T13:50:40.225Z,18.43
2018-11-07T13:53:10.028Z,18.35
2018-11-07T13:55:39.722Z,18.70
2018-11-07T13:58:12.646Z,19.01
2018-11-07T14:00:42.305Z,19.06
2018-11-07T14:03:11.962Z,19.28
2018-11-07T14:05:41.912Z,19.34
2018-11-07T14:08:11.437Z,19.69
2018-11-07T14:10:41.087Z,19.11
2018-11-07T14:13:12.432Z,18.38
2018-11-07T14:15:42.055Z,18.09
2018-11-07T14:18:12.304Z,18.13
2018-11-07T14:20:41.965Z,18.37
2018-11-07T14:23:15.935Z,18.90
2018-11-07T14:25:45.618Z,18.66
2018-11-07T14:28:16.201Z,18.75
2018-11-07T14:30:45.644Z,18.58
2018-11-07T14:33:15.503Z,18.25
2018-11-07T14:35:45.171Z,18.07
2018-11-07T14:38:14.895Z,17.99
2018-11-07T14:40:44.612Z,17.99
2018-11-07T14:43:14.332Z,17.85
2018-11-07T14:45:43.966Z,17.58
2018-11-07T14:48:14.696Z,17.26
2018-11-07T14:50:44.638Z,17.01
2018-11-07T14:53:14.913Z,16.97
2018-11-07T14:55:44.645Z,16.97
2018-11-07T14:58:14.322Z,16.69
2018-11-07T15:00:44.028Z,16.44
2018-11-07T15:03:13.615Z,16.27
2018-11-07T15:05:43.349Z,16.05
2018-11-07T15:08:12.996Z,15.93
2018-11-07T15:10:42.530Z,15.74
2018-11-07T15:13:12.162Z,15.61
2018-11-07T15:15:41.873Z,15.41
2018-11-07T15:18:11.471Z,15.28
2018-11-07T15:20:41.024Z,15.18
2018-11-07T15:23:10.651Z,15.03
2018-11-07T15:25:40.473Z,14.97
2018-11-07T15:28:10.197Z,14.98
2018-11-07T15:30:39.796Z,14.88
2018-11-07T15:33:09.917Z,14.87
2018-11-07T15:35:39.597Z,14.75
2018-11-07T15:38:09.323Z,14.84
2018-11-07T15:40:40.295Z,14.57
2018-11-07T15:43:12.773Z,14.46
2018-11-07T15:45:49.694Z,14.32
2018-11-07T15:48:19.623Z,14.23
2018-11-07T15:50:58.976Z,14.28
2018-11-07T15:56:27.736Z,14.47
2018-11-07T15:58:57.491Z,14.33
2018-11-07T16:01:27.359Z,14.25
2018-11-07T16:04:04.195Z,14.23
2018-11-07T16:09:38.055Z,14.27
2018-11-07T16:12:11.411Z,14.25
2018-11-07T16:14:41.070Z,14.26
2018-11-07T16:17:10.810Z,14.32
2018-11-07T16:19:41.070Z,14.36
2018-11-07T16:22:11.827Z,14.26
2018-11-07T16:24:41.683Z,14.10
2018-11-07T16:27:11.433Z,13.92
2018-11-07T16:29:41.129Z,13.80
2018-11-07T16:32:10.768Z,13.62
2018-11-07T16:34:40.385Z,13.50
2018-11-07T16:37:10.061Z,13.41
2018-11-07T16:39:42.803Z,13.36
2018-11-07T16:42:12.470Z,13.38
2018-11-07T16:44:42.134Z,13.30
2018-11-07T16:47:11.766Z,13.20
2018-11-07T16:49:41.347Z,13.04
2018-11-07T16:52:11.140Z,13.11
2018-11-07T16:54:40.834Z,13.25
2018-11-07T16:57:10.485Z,13.33
2018-11-07T16:59:40.100Z,13.59
2018-11-07T17:02:10.819Z,13.63
2018-11-07T17:04:40.467Z,13.60
2018-11-07T17:07:10.101Z,13.68
2018-11-07T17:09:39.695Z,13.74
2018-11-07T17:12:10.476Z,13.65
2018-11-07T17:14:40.153Z,13.58
2018-11-07T17:17:09.800Z,13.46
2018-11-07T17:19:39.509Z,13.40
2018-11-07T17:22:10.300Z,13.43
2018-11-07T17:24:40.071Z,13.32
2018-11-07T17:27:09.715Z,13.26
2018-11-07T17:29:41.373Z,13.31
2018-11-07T17:32:11.005Z,13.44
2018-11-07T17:34:40.655Z,13.39
2018-11-07T17:37:10.407Z,13.26
2018-11-07T17:39:39.984Z,13.05
2018-11-07T17:42:09.702Z,12.93
2018-11-07T17:44:43.547Z,12.84
2018-11-07T17:47:13.249Z,12.86
2018-11-07T17:49:42.886Z,12.80
2018-11-07T17:52:13.847Z,12.71
2018-11-07T17:54:44.513Z,12.66
2018-11-07T17:57:14.207Z,12.54
2018-11-07T17:59:44.805Z,12.49
2018-11-07T18:02:14.807Z,12.54
2018-11-07T18:04:45.474Z,12.61
2018-11-07T18:07:15.301Z,12.62
2018-11-07T18:09:48.218Z,12.54
2018-11-07T18:12:18.090Z,12.43
2018-11-07T18:14:48.820Z,12.26
2018-11-07T18:17:18.602Z,12.15
2018-11-07T18:19:49.385Z,12.11
2018-11-07T18:22:19.424Z,12.14
2018-11-07T18:24:49.075Z,12.14
2018-11-07T18:27:18.807Z,12.12
2018-11-07T18:29:52.700Z,12.16
2018-11-07T18:32:23.400Z,12.06
2018-11-07T18:34:54.107Z,12.09
2018-11-07T18:37:23.764Z,12.01
2018-11-07T18:39:54.719Z,12.01
2018-11-07T18:42:26.501Z,11.98
2018-11-07T18:44:56.382Z,11.96
2018-11-07T18:47:28.586Z,11.84
2018-11-07T18:50:04.428Z,11.77
2018-11-07T18:52:36.772Z,11.78
2018-11-07T18:55:12.715Z,11.70
2018-11-07T18:57:42.987Z,11.75
2018-11-07T19:00:15.561Z,11.80
2018-11-07T19:02:46.968Z,11.75
2018-11-07T19:05:19.783Z,11.67
2018-11-07T19:07:50.985Z,11.67
2018-11-07T19:10:21.925Z,11.58
2018-11-07T19:12:57.807Z,11.69
2018-11-07T19:15:27.590Z,11.75
2018-11-07T19:17:58.095Z,12.22
2018-11-07T19:20:32.452Z,12.51
2018-11-07T19:23:04.876Z,12.65
2018-11-07T19:25:36.724Z,12.68
2018-11-07T19:28:12.548Z,12.86
2018-11-07T19:30:48.757Z,13.05
2018-11-07T19:33:22.175Z,13.00
2018-11-07T19:35:54.024Z,13.07
2018-11-07T19:38:24.795Z,13.12
2018-11-07T19:40:58.631Z,13.16
2018-11-07T19:43:31.414Z,13.10
2018-11-07T19:46:07.556Z,13.17
2018-11-07T19:51:12.869Z,13.26
2018-11-07T19:53:43.649Z,13.27
2018-11-07T19:56:13.344Z,13.31
2018-11-07T19:58:45.807Z,13.27
2018-11-07T20:01:18.530Z,13.33
2018-11-07T20:03:49.839Z,13.26
2018-11-07T20:06:20.738Z,13.32
2018-11-07T20:08:55.541Z,13.26
2018-11-07T20:11:26.669Z,13.21
2018-11-07T20:13:58.149Z,13.17
2018-11-07T20:16:28.895Z,12.91
2018-11-07T20:19:03.783Z,12.68
2018-11-07T20:21:33.626Z,12.56
2018-11-07T20:24:04.872Z,12.44
2018-11-07T20:26:39.260Z,12.56
2018-11-07T20:29:12.755Z,12.74
2018-11-07T20:31:42.495Z,12.79
2018-11-07T20:34:13.245Z,12.83
2018-11-07T20:36:43.619Z,12.90
2018-11-07T20:39:15.723Z,12.86
2018-11-07T20:41:47.382Z,12.86
2018-11-07T20:44:24.140Z,12.69
2018-11-07T20:47:00.001Z,12.54
2018-11-07T20:49:30.751Z,12.53
2018-11-07T20:52:04.735Z,12.54
2018-11-07T20:54:34.429Z,12.62
2018-11-07T20:57:11.430Z,12.61
2018-11-07T20:59:41.135Z,12.70
2018-11-07T21:02:10.956Z,12.53
2018-11-07T21:04:41.260Z,12.48
2018-11-07T21:07:12.166Z,12.54
2018-11-07T21:09:42.870Z,12.44
2018-11-07T21:12:12.846Z,12.39
2018-11-07T21:14:42.478Z,12.38
2018-11-07T21:17:12.162Z,12.42
2018-11-07T21:19:41.835Z,12.37
2018-11-07T21:22:13.340Z,12.28
2018-11-07T21:24:42.998Z,12.27
2018-11-07T21:27:13.047Z,12.19
2018-11-07T21:29:43.023Z,12.11
2018-11-07T21:32:12.763Z,12.11
2018-11-07T21:34:42.434Z,11.97
2018-11-07T21:37:12.350Z,12.02
2018-11-07T21:39:42.100Z,12.00
2018-11-07T21:42:12.322Z,12.04
2018-11-07T21:44:42.019Z,12.18
2018-11-07T21:47:11.633Z,12.19
2018-11-07T21:49:41.512Z,12.31
2018-11-07T21:52:11.248Z,12.28
2018-11-07T21:54:40.832Z,12.23
2018-11-07T21:57:10.493Z,12.15
2018-11-07T21:59:41.023Z,12.12
2018-11-07T22:02:10.804Z,12.13
2018-11-07T22:04:40.654Z,12.03
2018-11-07T22:07:10.681Z,12.02
2018-11-07T22:09:40.333Z,12.04
2018-11-07T22:12:10.047Z,12.10
2018-11-07T22:14:39.760Z,12.18
2018-11-07T22:17:09.463Z,11.95
2018-11-07T22:19:39.063Z,11.84
2018-11-07T22:22:08.780Z,11.76
2018-11-07T22:24:38.464Z,11.55
2018-11-07T22:27:08.566Z,11.33
2018-11-07T22:29:38.213Z,11.28
2018-11-07T22:32:07.835Z,11.18
2018-11-07T22:34:37.531Z,11.06
2018-11-07T22:37:07.213Z,10.91
2018-11-07T22:39:36.895Z,10.85
2018-11-07T22:42:06.760Z,10.79
2018-11-07T22:44:36.455Z,10.91
2018-11-07T22:47:06.124Z,10.95
2018-11-07T22:49:35.784Z,11.04
2018-11-07T22:52:05.955Z,11.26
2018-11-07T22:54:35.702Z,11.30
2018-11-07T22:57:05.413Z,11.31
2018-11-07T22:59:35.115Z,11.26
2018-11-07T23:02:04.830Z,11.24
2018-11-07T23:04:34.541Z,11.07
2018-11-07T23:07:04.215Z,11.17
2018-11-07T23:09:33.815Z,11.05
2018-11-07T23:12:03.432Z,11.02
2018-11-07T23:14:33.125Z,10.99
2018-11-07T23:17:02.806Z,10.89
2018-11-07T23:19:32.681Z,11.01
2018-11-07T23:22:02.351Z,10.96
2018-11-07T23:24:32.096Z,10.96
2018-11-07T23:27:01.816Z,10.98
2018-11-07T23:29:31.486Z,10.83
2018-11-07T23:32:01.224Z,10.72
2018-11-07T23:34:30.910Z,10.59
2018-11-07T23:37:00.639Z,10.45
2018-11-07T23:39:30.295Z,10.43
2018-11-07T23:41:59.949Z,10.35
2018-11-07T23:44:29.574Z,10.30
2018-11-07T23:46:59.385Z,10.31
2018-11-07T23:49:29.026Z,10.28
2018-11-07T23:51:58.788Z,10.26
2018-11-07T23:54:28.500Z,10.21
2018-11-07T23:56:58.216Z,10.29
2018-11-07T23:59:27.850Z,10.25
